Time;durP1;ratioP1;P1;durP2;ratioP2;P2;SDS_P1;SDS_P2;PMS_P1;PMS_P2;Temp;Humidity;BMP_temperature;BMP_pressure;BME280_temperature;BME280_humidity;BME280_pressure;Samples;Min_cycle;Max_cycle;Signal;HPM_P1;HPM_P2
2023/01/28 00:01:18;;;;;;;;;;;1.80;99.90;;;;;;5133660;27;19923;-94
2023/01/28 00:03:43;;;;;;;;;;;2.30;99.90;;;;;;5115048;27;19929;-92
2023/01/28 00:06:12;;;;;;;;;;;2.20;99.90;;;;;;5111513;27;19987;-96
2023/01/28 00:08:37;;;;;;;;;;;1.80;99.90;;;;;;5127247;27;19931;-93
2023/01/28 00:11:04;;;;;;;;;;;1.80;99.90;;;;;;5135550;27;19962;-94
2023/01/28 00:13:30;;;;;;;;;;;1.70;99.90;;;;;;5129333;27;19979;-94
2023/01/28 00:15:56;;;;;;;;;;;1.90;99.90;;;;;;5142991;27;20351;-94
2023/01/28 00:18:22;;;;;;;;;;;1.70;99.90;;;;;;5118402;27;19927;-94
2023/01/28 00:21:01;;;;;;;;;;;1.60;99.90;;;;;;5125036;27;19923;-93
2023/01/28 00:23:27;;;;;;;;;;;1.70;99.90;;;;;;5128893;27;19927;-94
2023/01/28 00:25:53;;;;;;;;;;;1.70;99.90;;;;;;5131993;27;19986;-93
2023/01/28 00:28:19;;;;;;;;;;;1.70;99.90;;;;;;5131393;27;20100;-94
2023/01/28 00:30:45;;;;;;;;;;;2.00;99.90;;;;;;5124912;27;19963;-94
2023/01/28 00:33:11;;;;;;;;;;;1.70;99.90;;;;;;5115638;27;19923;-95
2023/01/28 00:35:36;;;;;;;;;;;1.70;99.90;;;;;;5128579;27;19927;-95
2023/01/28 00:38:03;;;;;;;;;;;1.50;99.90;;;;;;5119979;27;19962;-95
2023/01/28 00:40:28;;;;;;;;;;;1.70;99.90;;;;;;5114504;27;19944;-93
2023/01/28 00:42:54;;;;;;;;;;;1.80;99.90;;;;;;5114562;27;19923;-93
2023/01/28 00:45:20;;;;;;;;;;;1.70;99.90;;;;;;5107486;27;19923;-94
2023/01/28 00:47:47;;;;;;;;;;;1.70;99.90;;;;;;5109082;27;19966;-93
2023/01/28 00:50:13;;;;;;;;;;;2.50;99.90;;;;;;5151715;27;19923;-93
2023/01/28 00:52:38;;;;;;;;;;;1.60;99.90;;;;;;5123173;27;19967;-95
2023/01/28 00:55:04;;;;;;;;;;;2.60;99.90;;;;;;5098321;27;19954;-93
2023/01/28 00:57:30;;;;;;;;;;;1.60;99.90;;;;;;5135428;27;20000;-93
2023/01/28 00:59:55;;;;;;;;;;;2.10;99.90;;;;;;5105212;27;19934;-93
2023/01/28 01:02:21;;;;;;;;;;;2.90;99.90;;;;;;5104038;28;19924;-93
2023/01/28 01:04:58;;;;;;;;;;;1.70;99.90;;;;;;5142085;27;20227;-93
2023/01/28 01:07:31;;;;;;;;;;;1.60;99.90;;;;;;5109232;27;20412;-94
2023/01/28 01:10:00;;;;;;;;;;;1.60;99.90;;;;;;5131862;27;19927;-95
2023/01/28 01:12:26;;;;;;;;;;;1.60;99.90;;;;;;5128930;27;19958;-94
2023/01/28 01:14:52;;;;;;;;;;;2.60;99.90;;;;;;5137125;27;19924;-94
2023/01/28 01:17:19;;;;;;;;;;;1.60;99.90;;;;;;5110151;28;20368;-94
2023/01/28 01:19:44;;;;;;;;;;;1.60;99.90;;;;;;5093299;27;19924;-94
2023/01/28 01:22:10;;;;;;;;;;;1.60;99.90;;;;;;5131053;28;20019;-93
2023/01/28 01:24:35;;;;;;;;;;;1.70;99.90;;;;;;5125628;27;19934;-93
2023/01/28 01:27:01;;;;;;;;;;;1.60;99.90;;;;;;5144801;27;19995;-93
2023/01/28 01:29:27;;;;;;;;;;;1.60;99.90;;;;;;5160141;27;19923;-93
2023/01/28 01:31:55;;;;;;;;;;;1.50;99.90;;;;;;5155244;27;19968;-93
2023/01/28 01:34:21;;;;;;;;;;;1.60;99.90;;;;;;5110131;27;19943;-95
2023/01/28 01:36:46;;;;;;;;;;;1.50;99.90;;;;;;5140930;27;19976;-93
2023/01/28 01:39:12;;;;;;;;;;;1.90;99.90;;;;;;5119357;27;19923;-93
2023/01/28 01:41:38;;;;;;;;;;;1.50;99.90;;;;;;5117087;27;19930;-94
2023/01/28 01:44:04;;;;;;;;;;;1.50;99.90;;;;;;5128158;27;19976;-95
2023/01/28 01:46:32;;;;;;;;;;;1.50;99.90;;;;;;5130961;27;19945;-95
2023/01/28 01:49:02;;;;;;;;;;;1.90;99.90;;;;;;5136073;27;19975;-92
2023/01/28 01:51:31;;;;;;;;;;;1.60;99.90;;;;;;5116939;28;19924;-94
2023/01/28 01:53:57;;;;;;;;;;;1.90;99.90;;;;;;5117642;27;19990;-95
2023/01/28 01:56:25;;;;;;;;;;;2.80;99.90;;;;;;5118081;28;20505;-95
2023/01/28 01:58:53;;;;;;;;;;;2.00;99.90;;;;;;5137175;27;19960;-95
2023/01/28 02:01:20;;;;;;;;;;;1.80;99.90;;;;;;5140966;27;20335;-95
2023/01/28 02:03:50;;;;;;;;;;;1.60;99.90;;;;;;5128982;28;19923;-94
2023/01/28 02:06:16;;;;;;;;;;;2.30;99.90;;;;;;5118946;27;19932;-93
2023/01/28 02:08:43;;;;;;;;;;;1.50;99.90;;;;;;5110420;28;19930;-94
2023/01/28 02:11:09;;;;;;;;;;;1.80;99.90;;;;;;5136156;27;19931;-94
2023/01/28 02:13:43;;;;;;;;;;;2.30;99.90;;;;;;5119605;27;19964;-93
2023/01/28 02:16:09;;;;;;;;;;;1.60;99.90;;;;;;5143028;27;19974;-94
2023/01/28 02:18:35;;;;;;;;;;;1.60;99.90;;;;;;5125753;28;19923;-94
2023/01/28 02:21:00;;;;;;;;;;;2.30;99.90;;;;;;5139292;27;19962;-94
2023/01/28 02:23:44;;;;;;;;;;;1.70;99.90;;;;;;5141333;27;20329;-93
2023/01/28 02:26:28;;;;;;;;;;;1.70;99.90;;;;;;5116074;28;19924;-93
2023/01/28 02:29:00;;;;;;;;;;;1.60;99.90;;;;;;5138355;27;19924;-93
2023/01/28 02:31:28;;;;;;;;;;;1.60;99.90;;;;;;5127811;27;19927;-92
2023/01/28 02:33:57;;;;;;;;;;;2.30;99.90;;;;;;5114066;27;19923;-94
2023/01/28 02:36:27;;;;;;;;;;;1.60;99.90;;;;;;5163717;27;20243;-92
2023/01/28 02:38:54;;;;;;;;;;;0.70;99.90;;;;;;5126659;27;19934;-93
2023/01/28 02:41:23;;;;;;;;;;;1.60;99.90;;;;;;5132344;27;19923;-93
2023/01/28 02:43:49;;;;;;;;;;;1.60;99.90;;;;;;5133432;27;19923;-93
2023/01/28 02:48:59;;;;;;;;;;;3.60;99.90;;;;;;5145119;27;19923;-94
2023/01/28 02:51:31;;;;;;;;;;;1.70;99.90;;;;;;5126830;27;19929;-93
2023/01/28 02:54:02;;;;;;;;;;;2.10;99.90;;;;;;5151429;27;19919;-92
2023/01/28 02:56:48;;;;;;;;;;;2.30;99.90;;;;;;5147124;27;19920;-95
2023/01/28 03:02:16;;;;;;;;;;;1.50;99.90;;;;;;5147843;27;19923;-93
2023/01/28 03:04:54;;;;;;;;;;;1.50;99.90;;;;;;5126363;27;19955;-93
2023/01/28 03:07:21;;;;;;;;;;;1.40;99.90;;;;;;5128337;27;19924;-94
2023/01/28 03:09:50;;;;;;;;;;;1.50;99.90;;;;;;5149259;27;19971;-95
2023/01/28 03:37:24;;;;;;;;;;;2.10;99.90;;;;;;5120626;27;19923;-94
2023/01/28 03:39:50;;;;;;;;;;;2.70;99.90;;;;;;5116007;27;19931;-95
2023/01/28 03:42:17;;;;;;;;;;;1.40;99.90;;;;;;5148900;27;19931;-93
2023/01/28 03:44:52;;;;;;;;;;;1.40;99.90;;;;;;5135113;27;19934;-93
2023/01/28 03:47:19;;;;;;;;;;;2.50;99.90;;;;;;5133164;27;19923;-93
2023/01/28 03:49:48;;;;;;;;;;;1.40;99.90;;;;;;5128110;27;19923;-94
2023/01/28 03:52:14;;;;;;;;;;;3.10;99.90;;;;;;5125228;27;20014;-93
2023/01/28 03:54:39;;;;;;;;;;;1.80;99.90;;;;;;5122952;27;19930;-94
2023/01/28 03:57:05;;;;;;;;;;;1.80;99.90;;;;;;5118999;27;19931;-93
2023/01/28 03:59:31;;;;;;;;;;;1.40;99.90;;;;;;5125475;27;20370;-93
2023/01/28 04:01:57;;;;;;;;;;;1.30;99.90;;;;;;5113176;27;19923;-93
2023/01/28 04:04:23;;;;;;;;;;;1.40;99.90;;;;;;5132480;27;19930;-95
2023/01/28 04:06:50;;;;;;;;;;;1.70;99.90;;;;;;5141432;27;19930;-93
2023/01/28 04:09:15;;;;;;;;;;;-0.20;99.90;;;;;;5144348;27;19923;-94
2023/01/28 04:11:41;;;;;;;;;;;1.90;99.90;;;;;;5131778;27;19944;-94
2023/01/28 04:14:06;;;;;;;;;;;1.30;99.90;;;;;;5132406;27;19923;-93
2023/01/28 04:16:32;;;;;;;;;;;1.30;99.90;;;;;;5146755;27;19982;-94
2023/01/28 04:18:58;;;;;;;;;;;1.30;99.90;;;;;;5117277;27;19923;-94
2023/01/28 04:21:23;;;;;;;;;;;2.50;99.90;;;;;;5142822;27;19926;-96
2023/01/28 04:23:49;;;;;;;;;;;2.70;99.90;;;;;;5129288;27;19919;-93
2023/01/28 04:26:15;;;;;;;;;;;1.70;99.90;;;;;;5158959;27;19979;-94
2023/01/28 04:28:40;;;;;;;;;;;1.30;99.90;;;;;;5126971;27;19923;-92
2023/01/28 04:31:06;;;;;;;;;;;1.30;99.90;;;;;;5142486;27;20355;-94
2023/01/28 04:33:31;;;;;;;;;;;1.30;99.90;;;;;;5123689;27;20037;-94
2023/01/28 04:35:57;;;;;;;;;;;1.30;99.90;;;;;;5125477;27;19924;-94
2023/01/28 04:38:23;;;;;;;;;;;1.30;99.90;;;;;;5123662;27;19923;-93
2023/01/28 04:40:49;;;;;;;;;;;1.80;99.90;;;;;;5141140;27;19966;-92
2023/01/28 04:43:15;;;;;;;;;;;2.10;99.90;;;;;;5109866;27;19971;-93
2023/01/28 04:45:40;;;;;;;;;;;1.30;99.90;;;;;;5130740;27;19930;-94
2023/01/28 04:48:06;;;;;;;;;;;2.40;99.90;;;;;;5144559;27;20298;-92
2023/01/28 04:50:31;;;;;;;;;;;1.30;99.90;;;;;;5118986;27;19943;-92
2023/01/28 04:52:57;;;;;;;;;;;1.20;99.90;;;;;;5139973;27;19986;-93
2023/01/28 04:55:22;;;;;;;;;;;1.80;99.90;;;;;;5128723;27;19962;-92
2023/01/28 04:57:48;;;;;;;;;;;1.30;99.90;;;;;;5111993;27;20010;-94
2023/01/28 05:00:14;;;;;;;;;;;2.70;99.90;;;;;;5148379;27;20335;-93
2023/01/28 05:02:40;;;;;;;;;;;1.20;99.90;;;;;;5145626;27;19923;-94
2023/01/28 05:05:07;;;;;;;;;;;2.60;99.90;;;;;;5125939;27;19935;-93
2023/01/28 05:07:33;;;;;;;;;;;1.20;99.90;;;;;;5125729;27;19924;-92
2023/01/28 05:09:59;;;;;;;;;;;1.20;99.90;;;;;;5147550;27;19968;-93
2023/01/28 05:12:25;;;;;;;;;;;2.30;99.90;;;;;;5124654;27;19923;-92
2023/01/28 05:14:50;;;;;;;;;;;1.20;99.90;;;;;;5109193;27;20018;-93
2023/01/28 05:17:16;;;;;;;;;;;1.60;99.90;;;;;;5124377;27;19959;-93
2023/01/28 05:19:42;;;;;;;;;;;1.20;99.90;;;;;;5108497;27;19931;-94
2023/01/28 05:22:08;;;;;;;;;;;1.20;99.90;;;;;;5138978;27;19934;-94
2023/01/28 05:24:33;;;;;;;;;;;2.80;99.90;;;;;;5122787;27;19966;-94
2023/01/28 05:26:59;;;;;;;;;;;1.20;99.90;;;;;;5113524;27;19927;-93
2023/01/28 05:29:24;;;;;;;;;;;2.50;99.90;;;;;;5120586;28;19923;-93
2023/01/28 05:31:50;;;;;;;;;;;1.90;99.90;;;;;;5121814;27;19949;-95
2023/01/28 05:34:16;;;;;;;;;;;1.30;99.90;;;;;;5106086;27;19938;-93
2023/01/28 05:36:41;;;;;;;;;;;1.80;99.90;;;;;;5100327;27;19923;-95
2023/01/28 05:39:07;;;;;;;;;;;1.20;99.90;;;;;;5132518;27;19930;-93
2023/01/28 05:41:32;;;;;;;;;;;1.70;99.90;;;;;;5134207;27;19927;-93
2023/01/28 05:43:58;;;;;;;;;;;2.30;99.90;;;;;;5141977;27;19930;-93
2023/01/28 05:46:24;;;;;;;;;;;1.30;99.90;;;;;;5132943;27;19923;-94
2023/01/28 05:48:50;;;;;;;;;;;2.00;99.90;;;;;;5126295;27;19934;-94
2023/01/28 05:51:15;;;;;;;;;;;2.00;99.90;;;;;;5126472;28;20007;-94
2023/01/28 05:53:41;;;;;;;;;;;1.20;99.90;;;;;;5127309;27;19978;-93
2023/01/28 05:56:07;;;;;;;;;;;1.60;99.90;;;;;;5139357;27;19930;-92
2023/01/28 05:58:33;;;;;;;;;;;3.20;99.90;;;;;;5137879;27;19924;-92
2023/01/28 06:00:58;;;;;;;;;;;1.70;99.90;;;;;;5150897;27;19967;-93
2023/01/28 06:03:24;;;;;;;;;;;3.20;99.90;;;;;;5126054;27;19930;-93
2023/01/28 06:05:49;;;;;;;;;;;2.40;99.90;;;;;;5129649;27;19994;-94
2023/01/28 06:08:15;;;;;;;;;;;1.50;99.90;;;;;;5150921;27;19923;-94
2023/01/28 06:10:40;;;;;;;;;;;2.50;99.90;;;;;;5129234;27;19979;-95
2023/01/28 06:13:06;;;;;;;;;;;2.50;99.90;;;;;;5111755;28;19928;-94
2023/01/28 06:15:31;;;;;;;;;;;1.20;99.90;;;;;;5130082;27;19923;-94
2023/01/28 06:17:57;;;;;;;;;;;1.20;99.90;;;;;;5095337;27;20022;-94
2023/01/28 06:20:23;;;;;;;;;;;1.10;99.90;;;;;;5129856;27;19994;-93
2023/01/28 06:22:50;;;;;;;;;;;1.10;99.90;;;;;;5127839;27;19923;-95
2023/01/28 06:25:16;;;;;;;;;;;2.80;99.90;;;;;;5131498;27;19927;-93
2023/01/28 06:27:41;;;;;;;;;;;1.00;99.90;;;;;;5133249;27;19931;-93
2023/01/28 06:30:07;;;;;;;;;;;2.00;99.90;;;;;;5116487;27;19930;-93
2023/01/28 06:32:33;;;;;;;;;;;1.00;99.90;;;;;;5121448;27;20021;-94
2023/01/28 06:34:58;;;;;;;;;;;1.60;99.90;;;;;;5103544;27;20392;-93
2023/01/28 06:37:25;;;;;;;;;;;1.00;99.90;;;;;;5128668;27;19923;-95
2023/01/28 06:39:50;;;;;;;;;;;1.00;99.90;;;;;;5104954;27;19953;-94
2023/01/28 06:42:16;;;;;;;;;;;2.20;99.90;;;;;;5127934;27;19927;-94
2023/01/28 06:44:41;;;;;;;;;;;1.00;99.90;;;;;;5142752;27;19981;-91
2023/01/28 06:47:08;;;;;;;;;;;1.00;99.90;;;;;;5138513;27;20394;-93
2023/01/28 06:49:34;;;;;;;;;;;1.00;99.90;;;;;;5138248;27;19923;-91
2023/01/28 06:52:00;;;;;;;;;;;1.00;99.90;;;;;;5148967;27;19923;-93
2023/01/28 06:54:29;;;;;;;;;;;1.00;99.90;;;;;;5148731;27;19924;-94
2023/01/28 06:56:54;;;;;;;;;;;2.10;99.90;;;;;;5126892;27;20484;-93
2023/01/28 06:59:20;;;;;;;;;;;1.00;99.90;;;;;;5123253;27;19946;-93
2023/01/28 07:01:46;;;;;;;;;;;1.40;99.90;;;;;;5145893;27;19951;-93
2023/01/28 07:04:11;;;;;;;;;;;2.30;99.90;;;;;;5134081;27;19930;-93
2023/01/28 07:06:37;;;;;;;;;;;2.80;99.90;;;;;;5145886;27;19930;-93
2023/01/28 07:09:02;;;;;;;;;;;0.90;99.90;;;;;;5122368;27;19931;-92
2023/01/28 07:11:28;;;;;;;;;;;0.90;99.90;;;;;;5144677;27;19923;-95
2023/01/28 07:13:53;;;;;;;;;;;0.90;99.90;;;;;;5115768;27;19976;-93
2023/01/28 07:16:19;;;;;;;;;;;1.00;99.90;;;;;;5108429;28;19923;-92
2023/01/28 07:18:45;;;;;;;;;;;2.20;99.90;;;;;;5123033;27;19940;-92
2023/01/28 07:21:10;;;;;;;;;;;2.00;99.90;;;;;;5124636;27;19927;-92
2023/01/28 07:23:38;;;;;;;;;;;0.80;99.90;;;;;;5113293;27;19931;-93
2023/01/28 07:26:04;;;;;;;;;;;2.20;99.90;;;;;;5140817;27;20366;-94
2023/01/28 07:28:30;;;;;;;;;;;0.80;99.90;;;;;;5154244;27;20269;-92
2023/01/28 07:30:56;;;;;;;;;;;1.40;99.90;;;;;;5114332;27;20007;-92
2023/01/28 07:33:21;;;;;;;;;;;0.70;99.90;;;;;;5120991;27;19924;-93
2023/01/28 07:35:47;;;;;;;;;;;0.70;99.90;;;;;;5140992;27;19923;-94
2023/01/28 07:38:13;;;;;;;;;;;0.70;99.90;;;;;;5141234;27;19955;-94
2023/01/28 07:40:41;;;;;;;;;;;1.90;99.90;;;;;;5125115;27;19923;-93
2023/01/28 07:43:07;;;;;;;;;;;1.00;99.90;;;;;;5144967;27;20050;-92
2023/01/28 07:45:32;;;;;;;;;;;0.60;99.90;;;;;;5157426;27;20355;-94
2023/01/28 07:47:59;;;;;;;;;;;0.30;99.90;;;;;;5151375;27;19923;-93
2023/01/28 07:50:25;;;;;;;;;;;0.20;99.90;;;;;;5125163;27;19991;-92
2023/01/28 07:52:51;;;;;;;;;;;0.60;99.90;;;;;;5128860;27;19924;-92
2023/01/28 07:55:16;;;;;;;;;;;0.50;99.90;;;;;;5114774;27;19923;-94
2023/01/28 07:57:52;;;;;;;;;;;1.70;99.90;;;;;;5108814;27;19924;-92
2023/01/28 08:00:19;;;;;;;;;;;0.00;99.90;;;;;;5126433;27;20237;-93
2023/01/28 08:02:46;;;;;;;;;;;-0.10;99.90;;;;;;5103962;28;20034;-93
2023/01/28 08:05:16;;;;;;;;;;;-0.10;99.90;;;;;;5129085;27;19986;-93
2023/01/28 08:07:42;;;;;;;;;;;-0.10;99.90;;;;;;5141788;27;20452;-94
2023/01/28 08:10:08;;;;;;;;;;;1.80;99.90;;;;;;5124791;27;19927;-92
2023/01/28 08:12:33;;;;;;;;;;;-0.10;99.90;;;;;;5141252;27;19931;-92
2023/01/28 08:14:59;;;;;;;;;;;0.20;99.90;;;;;;5124310;27;20092;-92
2023/01/28 08:17:24;;;;;;;;;;;0.90;99.90;;;;;;5111283;27;19929;-94
2023/01/28 08:19:50;;;;;;;;;;;-0.10;99.90;;;;;;5141407;27;19923;-92
2023/01/28 08:22:16;;;;;;;;;;;-0.20;99.90;;;;;;5150188;27;19953;-92
2023/01/28 08:24:41;;;;;;;;;;;-0.10;99.90;;;;;;5131883;27;19931;-93
2023/01/28 08:27:07;;;;;;;;;;;2.90;99.90;;;;;;5148853;27;19930;-92
2023/01/28 08:29:32;;;;;;;;;;;0.20;99.90;;;;;;5121143;27;19965;-93
2023/01/28 08:31:58;;;;;;;;;;;0.00;99.90;;;;;;5110617;28;20472;-92
2023/01/28 08:34:23;;;;;;;;;;;1.50;99.90;;;;;;5129423;27;19933;-92
2023/01/28 08:36:49;;;;;;;;;;;0.30;99.90;;;;;;5148613;27;19924;-93
2023/01/28 08:39:15;;;;;;;;;;;0.20;99.90;;;;;;5106741;27;19931;-94
2023/01/28 08:41:40;;;;;;;;;;;0.30;99.90;;;;;;5135393;27;19923;-94
2023/01/28 08:44:06;;;;;;;;;;;1.90;99.90;;;;;;5107456;27;19927;-93
2023/01/28 08:46:32;;;;;;;;;;;2.10;99.90;;;;;;5151445;27;19954;-92
2023/01/28 08:48:57;;;;;;;;;;;0.60;99.90;;;;;;5127751;27;20285;-93
2023/01/28 08:51:23;;;;;;;;;;;0.80;99.90;;;;;;5116856;28;19923;-93
2023/01/28 08:53:48;;;;;;;;;;;0.70;99.90;;;;;;5148420;27;19924;-93
2023/01/28 08:56:15;;;;;;;;;;;2.00;99.90;;;;;;5106533;27;19953;-94
2023/01/28 08:58:41;;;;;;;;;;;1.20;99.90;;;;;;5124011;27;19948;-93
2023/01/28 09:01:06;;;;;;;;;;;1.40;99.90;;;;;;5137333;27;19923;-96
2023/01/28 09:03:32;;;;;;;;;;;0.70;99.90;;;;;;5107444;27;19984;-93
2023/01/28 09:06:02;;;;;;;;;;;1.80;99.90;;;;;;5140615;27;20377;-93
2023/01/28 09:08:27;;;;;;;;;;;0.60;99.90;;;;;;5148062;27;19932;-92
2023/01/28 09:10:56;;;;;;;;;;;0.90;99.90;;;;;;5121985;27;19923;-93
2023/01/28 09:13:22;;;;;;;;;;;0.70;99.90;;;;;;5133851;27;19923;-92
2023/01/28 09:15:48;;;;;;;;;;;0.70;99.90;;;;;;5117601;27;20774;-94
2023/01/28 09:18:13;;;;;;;;;;;1.70;99.90;;;;;;5134221;27;19930;-93
2023/01/28 09:20:39;;;;;;;;;;;0.80;99.90;;;;;;5140823;27;19974;-92
2023/01/28 09:23:05;;;;;;;;;;;1.10;99.90;;;;;;5129757;27;19923;-94
2023/01/28 09:25:31;;;;;;;;;;;0.90;99.90;;;;;;5141897;27;19945;-93
2023/01/28 09:27:57;;;;;;;;;;;0.90;99.90;;;;;;5141469;27;19968;-93
2023/01/28 09:30:22;;;;;;;;;;;1.90;99.90;;;;;;5147450;27;19930;-93
2023/01/28 09:32:49;;;;;;;;;;;2.90;99.90;;;;;;5128369;27;19987;-93
2023/01/28 09:35:15;;;;;;;;;;;1.10;99.90;;;;;;5145308;27;19963;-94
2023/01/28 09:37:40;;;;;;;;;;;1.20;99.90;;;;;;5105281;27;20007;-92
2023/01/28 09:40:07;;;;;;;;;;;1.30;99.90;;;;;;5123052;27;19923;-93
2023/01/28 09:42:47;;;;;;;;;;;1.40;99.90;;;;;;5140409;27;19979;-93
2023/01/28 09:45:16;;;;;;;;;;;1.60;99.90;;;;;;5129877;27;19923;-94
2023/01/28 09:47:52;;;;;;;;;;;1.70;99.90;;;;;;5149870;27;20034;-93
2023/01/28 09:50:22;;;;;;;;;;;1.70;99.90;;;;;;5129701;27;20018;-94
2023/01/28 09:52:48;;;;;;;;;;;1.80;99.90;;;;;;5151415;27;19923;-94
2023/01/28 09:55:18;;;;;;;;;;;2.00;99.90;;;;;;5125667;28;19930;-94
2023/01/28 09:57:52;;;;;;;;;;;1.80;99.90;;;;;;5138727;27;19924;-94
2023/01/28 10:00:19;;;;;;;;;;;1.80;99.90;;;;;;5148984;27;19970;-93
2023/01/28 10:03:00;;;;;;;;;;;1.80;99.90;;;;;;5130399;27;19931;-93
2023/01/28 10:05:32;;;;;;;;;;;2.80;99.90;;;;;;5140130;27;19948;-93
2023/01/28 10:07:58;;;;;;;;;;;1.80;99.90;;;;;;5126344;27;19959;-93
2023/01/28 10:10:50;;;;;;;;;;;1.80;99.90;;;;;;5153327;27;19923;-93
2023/01/28 10:13:23;;;;;;;;;;;1.90;99.90;;;;;;5126857;28;19924;-94
2023/01/28 10:15:49;;;;;;;;;;;2.10;99.90;;;;;;5122583;27;19924;-93
2023/01/28 10:18:15;;;;;;;;;;;2.20;99.90;;;;;;5133540;28;19924;-95
2023/01/28 10:20:53;;;;;;;;;;;2.20;99.90;;;;;;5127626;28;19923;-93
2023/01/28 10:23:22;;;;;;;;;;;2.30;99.90;;;;;;5144279;27;19976;-92
2023/01/28 10:25:48;;;;;;;;;;;2.30;99.90;;;;;;5127896;27;19923;-94
2023/01/28 10:28:22;;;;;;;;;;;2.30;99.90;;;;;;5130934;28;19976;-95
2023/01/28 10:30:48;;;;;;;;;;;2.30;99.90;;;;;;5136277;28;19924;-93
2023/01/28 10:33:23;;;;;;;;;;;2.40;99.90;;;;;;5114543;27;19962;-96
2023/01/28 10:35:49;;;;;;;;;;;2.50;99.90;;;;;;5130366;28;19924;-96
2023/01/28 10:38:16;;;;;;;;;;;2.70;99.90;;;;;;5132965;27;20309;-93
2023/01/28 10:40:42;;;;;;;;;;;2.90;99.90;;;;;;5129589;28;19956;-95
2023/01/28 10:43:07;;;;;;;;;;;3.10;99.90;;;;;;5123291;28;19945;-94
2023/01/28 10:45:35;;;;;;;;;;;3.30;99.90;;;;;;5131659;27;19927;-93
2023/01/28 10:48:18;;;;;;;;;;;3.40;99.90;;;;;;5135743;27;19923;-96
2023/01/28 10:50:51;;;;;;;;;;;3.60;99.90;;;;;;5149843;27;20014;-94
2023/01/28 10:53:17;;;;;;;;;;;3.70;99.90;;;;;;5150352;27;19923;-94
2023/01/28 10:55:49;;;;;;;;;;;3.40;99.90;;;;;;5116508;27;19924;-93
2023/01/28 10:58:25;;;;;;;;;;;3.90;99.90;;;;;;5146670;27;20041;-94
2023/01/28 11:01:02;;;;;;;;;;;5.50;99.90;;;;;;5128280;27;19930;-95
2023/01/28 11:03:30;;;;;;;;;;;4.20;99.90;;;;;;5125039;27;19924;-93
2023/01/28 11:05:57;;;;;;;;;;;4.10;99.90;;;;;;5146584;27;19927;-93
2023/01/28 11:08:24;;;;;;;;;;;4.00;99.90;;;;;;5132039;27;19980;-94
2023/01/28 11:10:50;;;;;;;;;;;4.10;99.90;;;;;;5130019;27;19955;-93
2023/01/28 11:13:16;;;;;;;;;;;4.00;99.90;;;;;;5132023;27;19949;-93
2023/01/28 11:15:49;;;;;;;;;;;4.10;99.90;;;;;;5129808;27;19924;-93
2023/01/28 11:18:26;;;;;;;;;;;4.00;99.90;;;;;;5142233;27;20274;-93
2023/01/28 11:20:57;;;;;;;;;;;3.90;99.90;;;;;;5125512;27;19957;-92
2023/01/28 11:23:28;;;;;;;;;;;3.90;99.90;;;;;;5145323;27;19929;-93
2023/01/28 11:26:12;;;;;;;;;;;3.90;99.90;;;;;;5159431;27;19923;-93
2023/01/28 11:28:39;;;;;;;;;;;3.90;99.90;;;;;;5125918;27;19923;-93
2023/01/28 11:31:05;;;;;;;;;;;3.90;99.90;;;;;;5138042;27;19941;-94
2023/01/28 11:33:38;;;;;;;;;;;3.90;99.90;;;;;;5142603;27;19923;-94
2023/01/28 11:36:20;;;;;;;;;;;3.90;99.90;;;;;;5125133;27;19923;-94
2023/01/28 11:38:54;;;;;;;;;;;3.90;99.90;;;;;;5124751;27;19985;-95
2023/01/28 11:41:36;;;;;;;;;;;3.90;99.90;;;;;;5125357;27;19967;-92
2023/01/28 11:44:28;;;;;;;;;;;3.90;99.90;;;;;;5150245;27;19981;-96
2023/01/28 11:47:12;;;;;;;;;;;3.90;99.90;;;;;;5131845;27;19947;-95
2023/01/28 11:49:44;;;;;;;;;;;3.90;99.90;;;;;;5118263;27;19923;-94
2023/01/28 11:52:10;;;;;;;;;;;3.90;99.90;;;;;;5128196;27;19984;-94
2023/01/28 11:54:38;;;;;;;;;;;4.00;99.90;;;;;;5134048;27;19927;-95
2023/01/28 11:57:10;;;;;;;;;;;4.00;99.90;;;;;;5158910;27;19930;-94
2023/01/28 11:59:42;;;;;;;;;;;4.10;99.90;;;;;;5111495;27;19927;-96
2023/01/28 12:02:24;;;;;;;;;;;4.20;99.90;;;;;;5139917;27;19923;-95
2023/01/28 12:05:05;;;;;;;;;;;4.20;99.90;;;;;;5128953;27;20034;-92
2023/01/28 12:07:31;;;;;;;;;;;4.20;99.90;;;;;;5125417;27;19923;-94
2023/01/28 12:10:16;;;;;;;;;;;4.20;99.90;;;;;;5129018;27;19990;-96
2023/01/28 12:12:45;;;;;;;;;;;4.20;99.90;;;;;;5124133;27;19932;-93
2023/01/28 12:15:20;;;;;;;;;;;4.10;99.90;;;;;;5123584;27;19927;-92
2023/01/28 12:18:09;;;;;;;;;;;4.10;99.90;;;;;;5120364;27;20066;-94
2023/01/28 12:20:40;;;;;;;;;;;4.00;99.90;;;;;;5103900;27;19924;-92
2023/01/28 12:23:18;;;;;;;;;;;3.90;99.90;;;;;;5120355;27;19957;-93
2023/01/28 12:26:03;;;;;;;;;;;3.90;99.90;;;;;;5136958;27;20449;-92
2023/01/28 12:28:34;;;;;;;;;;;3.90;99.90;;;;;;5122511;27;19942;-93
2023/01/28 12:31:18;;;;;;;;;;;4.00;99.90;;;;;;5127773;27;19924;-93
2023/01/28 12:33:50;;;;;;;;;;;4.00;99.90;;;;;;5131556;27;19923;-91
2023/01/28 12:36:25;;;;;;;;;;;4.10;99.90;;;;;;5134685;27;19927;-92
2023/01/28 12:38:50;;;;;;;;;;;4.10;99.90;;;;;;5129990;27;19923;-94
2023/01/28 12:41:17;;;;;;;;;;;4.00;99.90;;;;;;5123631;27;19942;-93
2023/01/28 12:43:46;;;;;;;;;;;4.00;99.90;;;;;;5142864;27;19962;-92
2023/01/28 12:46:12;;;;;;;;;;;3.90;99.90;;;;;;5127124;27;20290;-93
2023/01/28 12:49:04;;;;;;;;;;;3.90;99.90;;;;;;5137124;27;19923;-93
2023/01/28 12:51:33;;;;;;;;;;;4.00;99.90;;;;;;5115694;27;20285;-92
2023/01/28 12:54:15;;;;;;;;;;;4.00;99.90;;;;;;5119296;27;19934;-91
2023/01/28 12:56:43;;;;;;;;;;;4.10;99.90;;;;;;5146409;27;20359;-91
2023/01/28 12:59:15;;;;;;;;;;;4.10;99.90;;;;;;5148591;27;19930;-92
2023/01/28 13:01:46;;;;;;;;;;;4.20;99.90;;;;;;5127379;27;19930;-93
2023/01/28 13:04:27;;;;;;;;;;;4.30;99.90;;;;;;5141988;27;20418;-93
2023/01/28 13:06:56;;;;;;;;;;;4.40;99.90;;;;;;5113866;27;19928;-93
2023/01/28 13:09:24;;;;;;;;;;;4.40;99.90;;;;;;5135123;27;20292;-92
2023/01/28 13:11:50;;;;;;;;;;;4.50;99.90;;;;;;5128089;27;19933;-92
2023/01/28 13:14:16;;;;;;;;;;;4.40;99.90;;;;;;5115489;27;20274;-93
2023/01/28 13:16:42;;;;;;;;;;;4.40;99.90;;;;;;5124050;27;19927;-93
2023/01/28 13:19:17;;;;;;;;;;;4.40;99.90;;;;;;5108790;27;20117;-92
2023/01/28 13:21:43;;;;;;;;;;;4.30;99.90;;;;;;5118532;27;20026;-92
2023/01/28 13:24:08;;;;;;;;;;;4.20;99.90;;;;;;5133940;27;20263;-92
2023/01/28 13:26:42;;;;;;;;;;;4.10;99.90;;;;;;5131075;27;20114;-94
2023/01/28 13:29:14;;;;;;;;;;;4.20;99.90;;;;;;5117569;27;19924;-93
2023/01/28 13:31:41;;;;;;;;;;;4.30;99.90;;;;;;5120440;27;19935;-92
2023/01/28 13:34:07;;;;;;;;;;;4.60;99.90;;;;;;5114708;27;20343;-92
2023/01/28 13:36:38;;;;;;;;;;;4.70;99.90;;;;;;5119209;27;19951;-94
2023/01/28 13:39:15;;;;;;;;;;;4.70;99.90;;;;;;5137332;27;19924;-92
2023/01/28 13:41:44;;;;;;;;;;;4.70;99.90;;;;;;5117002;27;20304;-93
2023/01/28 13:44:22;;;;;;;;;;;4.70;99.90;;;;;;5115848;27;20272;-93
2023/01/28 13:46:48;;;;;;;;;;;4.70;99.90;;;;;;5116387;27;19923;-92
2023/01/28 13:49:27;;;;;;;;;;;4.70;99.90;;;;;;5116367;27;19923;-92
2023/01/28 13:52:13;;;;;;;;;;;4.70;99.90;;;;;;5115097;27;19923;-92
2023/01/28 13:54:57;;;;;;;;;;;4.60;99.90;;;;;;5136273;27;19924;-93
2023/01/28 13:57:26;;;;;;;;;;;4.60;99.90;;;;;;5112439;28;19924;-93
2023/01/28 14:00:01;;;;;;;;;;;4.60;99.90;;;;;;5117134;28;20002;-93
2023/01/28 14:02:26;;;;;;;;;;;4.60;99.90;;;;;;5116584;28;19927;-91
2023/01/28 14:05:01;;;;;;;;;;;4.50;99.90;;;;;;5119818;28;19924;-93
2023/01/28 14:07:45;;;;;;;;;;;4.50;99.90;;;;;;5110468;28;19923;-93
2023/01/28 14:10:23;;;;;;;;;;;4.50;99.90;;;;;;5120098;28;19943;-93
2023/01/28 14:12:53;;;;;;;;;;;4.50;99.90;;;;;;5122050;27;20000;-92
2023/01/28 14:15:23;;;;;;;;;;;4.50;99.90;;;;;;5122418;27;19966;-92
2023/01/28 14:17:58;;;;;;;;;;;4.40;99.90;;;;;;5121885;27;19924;-93
2023/01/28 14:20:57;;;;;;;;;;;4.40;99.90;;;;;;5134572;27;19923;-92
2023/01/28 14:23:25;;;;;;;;;;;4.40;99.90;;;;;;5069594;27;19923;-93
2023/01/28 14:26:03;;;;;;;;;;;4.40;99.90;;;;;;5122298;27;19924;-92
2023/01/28 14:28:34;;;;;;;;;;;4.40;99.90;;;;;;5120665;27;19924;-92
2023/01/28 14:31:05;;;;;;;;;;;4.40;99.90;;;;;;5121899;27;19958;-93
2023/01/28 14:33:31;;;;;;;;;;;4.30;99.90;;;;;;5142292;27;19924;-94
2023/01/28 14:35:56;;;;;;;;;;;4.30;99.90;;;;;;5123859;27;19953;-93
2023/01/28 14:38:23;;;;;;;;;;;4.30;99.90;;;;;;5113793;27;20059;-92
2023/01/28 14:40:52;;;;;;;;;;;4.20;99.90;;;;;;5135593;27;19983;-92
2023/01/28 14:43:20;;;;;;;;;;;4.20;99.90;;;;;;5125786;27;19961;-93
2023/01/28 14:45:49;;;;;;;;;;;4.20;99.90;;;;;;5141516;27;19963;-93
2023/01/28 14:48:20;;;;;;;;;;;4.30;99.90;;;;;;5141809;27;19934;-93
2023/01/28 14:51:05;;;;;;;;;;;4.30;99.90;;;;;;5123277;27;19927;-94
2023/01/28 14:53:38;;;;;;;;;;;4.30;99.90;;;;;;5137628;27;19924;-93
2023/01/28 14:56:07;;;;;;;;;;;4.30;99.90;;;;;;5122234;27;19931;-92
2023/01/28 14:58:37;;;;;;;;;;;4.30;99.90;;;;;;5115355;28;19924;-92
2023/01/28 15:01:03;;;;;;;;;;;4.20;99.90;;;;;;5121475;27;20061;-91
2023/01/28 15:03:29;;;;;;;;;;;4.20;99.90;;;;;;5122619;27;19923;-92
2023/01/28 15:06:01;;;;;;;;;;;4.20;99.90;;;;;;5130495;27;19946;-92
2023/01/28 15:08:27;;;;;;;;;;;4.10;99.90;;;;;;5119443;27;19945;-93